PWSweather.com
Personal Weather Stations
Station Observations

SkegnessGB

Lat: 53.147585, Lon: 0.345774

Elevation: 18

Station Type: Fine Offset WH3080

http://www.skegnessweather.info/

High Low Average
Temperature 55.6°F13.1°C 35.4°F1.9°C 47.2°F8.4°C
Dew Point 51.3°F10.7°C 32.9°F0.5°C 44.6°F7.0°C
Winds 9.2 mph 14.8 kmh 0.4 mph 0.6 kmh 4.0 mph SSW6.4 kmh SSW
Wind Gusts 11.8 mph19.0 kmh 1.7 mph2.7 kmh 6.0 mph9.7 kmh
Humidity 100% 73% 91%
Pressure 30.34 in1027.4 mb 30.09 in1019.0 mb -
Precipitation 0.00 in0.0 mm - -
Hour Temp Dew Point Humidity Winds Wind Gusts Pressure Precip Precip Rate Daily Precip Total
12:00 AM 49.1°F9.5°C 49.1°F9.5°C 100% 5.4 mph SSW8.7 kmh SSW 5.9 mph9.5 kmh 30.15 in1021.0 mb 0.00 in0.0 mm 0.00 in0.0 mm 0.00 in0.0 mm
12:10 AM 49.1°F9.5°C 49.1°F9.5°C 100% 5.7 mph SE9.2 kmh SE 5.9 mph9.5 kmh 30.15 in1021.0 mb 0.00 in0.0 mm 0.00 in0.0 mm 0.00 in0.0 mm
12:20 AM 49.3°F9.6°C 49.3°F9.6°C 100% 4.1 mph SW6.6 kmh SW 4.9 mph7.9 kmh 30.15 in1021.0 mb 0.00 in0.0 mm 0.00 in0.0 mm 0.00 in0.0 mm
12:30 AM 49.3°F9.6°C 49.3°F9.6°C 100% 4.5 mph S7.2 kmh S 4.9 mph7.9 kmh 30.15 in1021.0 mb 0.00 in0.0 mm 0.00 in0.0 mm 0.00 in0.0 mm
12:40 AM 49.1°F9.5°C 49.1°F9.5°C 100% 3.6 mph S5.8 kmh S 4.9 mph7.9 kmh 30.15 in1021.0 mb 0.00 in0.0 mm 0.00 in0.0 mm 0.00 in0.0 mm
12:50 AM 49.1°F9.5°C 49.1°F9.5°C 100% 2.4 mph S3.9 kmh S 4.2 mph6.8 kmh 30.14 in1020.7 mb 0.00 in0.0 mm 0.00 in0.0 mm 0.00 in0.0 mm
01:00 AM 49.1°F9.5°C 49.1°F9.5°C 100% 4.3 mph SW6.9 kmh SW 5.9 mph9.5 kmh 30.14 in1020.7 mb 0.00 in0.0 mm 0.00 in0.0 mm 0.00 in0.0 mm
01:10 AM 49.1°F9.5°C 49.1°F9.5°C 100% 5.1 mph S8.2 kmh S 4.2 mph6.8 kmh 30.14 in1020.7 mb 0.00 in0.0 mm 0.00 in0.0 mm 0.00 in0.0 mm
01:20 AM 49.1°F9.5°C 49.1°F9.5°C 100% 4.1 mph S6.6 kmh S 5.9 mph9.5 kmh 30.13 in1020.3 mb 0.00 in0.0 mm 0.00 in0.0 mm 0.00 in0.0 mm
01:30 AM 49.1°F9.5°C 49.1°F9.5°C 100% 5.0 mph SSW8.0 kmh SSW 4.9 mph7.9 kmh 30.13 in1020.3 mb 0.00 in0.0 mm 0.00 in0.0 mm 0.00 in0.0 mm
01:40 AM 49.1°F9.5°C 49.1°F9.5°C 100% 5.2 mph S8.4 kmh S 5.9 mph9.5 kmh 30.12 in1020.0 mb 0.00 in0.0 mm 0.00 in0.0 mm 0.00 in0.0 mm
01:50 AM 49.1°F9.5°C 49.1°F9.5°C 100% 5.1 mph S8.2 kmh S 5.9 mph9.5 kmh 30.13 in1020.3 mb 0.00 in0.0 mm 0.00 in0.0 mm 0.00 in0.0 mm
02:00 AM 49.1°F9.5°C 49.1°F9.5°C 100% 6.1 mph SSE9.8 kmh SSE 6.6 mph10.6 kmh 30.12 in1020.0 mb 0.00 in0.0 mm 0.00 in0.0 mm 0.00 in0.0 mm
02:10 AM 48.9°F9.4°C 48.9°F9.4°C 100% 6.6 mph SW10.6 kmh SW 7.6 mph12.2 kmh 30.12 in1020.0 mb 0.00 in0.0 mm 0.00 in0.0 mm 0.00 in0.0 mm
02:20 AM 48.9°F9.4°C 48.9°F9.4°C 100% 6.4 mph S10.3 kmh S 7.6 mph12.2 kmh 30.12 in1020.0 mb 0.00 in0.0 mm 0.00 in0.0 mm 0.00 in0.0 mm
02:30 AM 49.1°F9.5°C 49.1°F9.5°C 100% 6.2 mph S10.0 kmh S 6.6 mph10.6 kmh 30.12 in1020.0 mb 0.00 in0.0 mm 0.00 in0.0 mm 0.00 in0.0 mm
02:40 AM 49.1°F9.5°C 49.1°F9.5°C 100% 7.0 mph SSW11.3 kmh SSW 10.8 mph17.4 kmh 30.12 in1020.0 mb 0.00 in0.0 mm 0.00 in0.0 mm 0.00 in0.0 mm
02:50 AM 49.1°F9.5°C 49.1°F9.5°C 100% 7.9 mph S12.7 kmh S 7.6 mph12.2 kmh 30.12 in1020.0 mb 0.00 in0.0 mm 0.00 in0.0 mm 0.00 in0.0 mm
03:00 AM 49.3°F9.6°C 49.3°F9.6°C 100% 6.0 mph SW9.7 kmh SW 7.6 mph12.2 kmh 30.12 in1020.0 mb 0.00 in0.0 mm 0.00 in0.0 mm 0.00 in0.0 mm
03:10 AM 49.3°F9.6°C 49.3°F9.6°C 100% 4.9 mph SSE7.9 kmh SSE 5.9 mph9.5 kmh 30.11 in1019.6 mb 0.00 in0.0 mm 0.00 in0.0 mm 0.00 in0.0 mm
03:20 AM 49.1°F9.5°C 49.1°F9.5°C 100% 6.8 mph S10.9 kmh S 8.4 mph13.5 kmh 30.11 in1019.6 mb 0.00 in0.0 mm 0.00 in0.0 mm 0.00 in0.0 mm
03:30 AM 49.1°F9.5°C 49.1°F9.5°C 100% 4.8 mph S7.7 kmh S 6.6 mph10.6 kmh 30.11 in1019.6 mb 0.00 in0.0 mm 0.00 in0.0 mm 0.00 in0.0 mm
03:40 AM 48.9°F9.4°C 48.9°F9.4°C 100% 4.9 mph SW7.9 kmh SW 7.6 mph12.2 kmh 30.11 in1019.6 mb 0.00 in0.0 mm 0.00 in0.0 mm 0.00 in0.0 mm
03:50 AM 48.9°F9.4°C 48.9°F9.4°C 100% 5.7 mph SSW9.2 kmh SSW 7.6 mph12.2 kmh 30.11 in1019.6 mb 0.00 in0.0 mm 0.00 in0.0 mm 0.00 in0.0 mm
04:00 AM 48.9°F9.4°C 48.9°F9.4°C 100% 4.6 mph S7.4 kmh S 6.6 mph10.6 kmh 30.10 in1019.3 mb 0.00 in0.0 mm 0.00 in0.0 mm 0.00 in0.0 mm
04:10 AM 48.9°F9.4°C 48.9°F9.4°C 100% 3.5 mph SSW5.6 kmh SSW 4.2 mph6.8 kmh 30.10 in1019.3 mb 0.00 in0.0 mm 0.00 in0.0 mm 0.00 in0.0 mm
04:20 AM 49.1°F9.5°C 49.1°F9.5°C 100% 4.5 mph S7.2 kmh S 5.9 mph9.5 kmh 30.10 in1019.3 mb 0.00 in0.0 mm 0.00 in0.0 mm 0.00 in0.0 mm
04:30 AM 49.1°F9.5°C 49.1°F9.5°C 100% 3.8 mph SSW6.1 kmh SSW 6.6 mph10.6 kmh 30.10 in1019.3 mb 0.00 in0.0 mm 0.00 in0.0 mm 0.00 in0.0 mm
04:40 AM 49.1°F9.5°C 49.1°F9.5°C 100% 3.8 mph E6.1 kmh E 4.9 mph7.9 kmh 30.10 in1019.3 mb 0.00 in0.0 mm 0.00 in0.0 mm 0.00 in0.0 mm
04:50 AM 49.1°F9.5°C 49.1°F9.5°C 100% 4.2 mph WSW6.8 kmh WSW 5.9 mph9.5 kmh 30.10 in1019.3 mb 0.00 in0.0 mm 0.00 in0.0 mm 0.00 in0.0 mm
05:00 AM 49.1°F9.5°C 49.1°F9.5°C 100% 4.9 mph SW7.9 kmh SW 6.6 mph10.6 kmh 30.09 in1019.0 mb 0.00 in0.0 mm 0.00 in0.0 mm 0.00 in0.0 mm
05:10 AM 48.9°F9.4°C 48.9°F9.4°C 100% 2.6 mph SW4.2 kmh SW 4.2 mph6.8 kmh 30.09 in1019.0 mb 0.00 in0.0 mm 0.00 in0.0 mm 0.00 in0.0 mm
05:20 AM 48.9°F9.4°C 48.9°F9.4°C 100% 3.7 mph W6.0 kmh W 4.2 mph6.8 kmh 30.09 in1019.0 mb 0.00 in0.0 mm 0.00 in0.0 mm 0.00 in0.0 mm
05:30 AM 48.7°F9.3°C 48.7°F9.3°C 100% 2.4 mph WNW3.9 kmh WNW 3.4 mph5.5 kmh 30.09 in1019.0 mb 0.00 in0.0 mm 0.00 in0.0 mm 0.00 in0.0 mm
05:40 AM 48.6°F9.2°C 48.6°F9.2°C 100% 2.8 mph S4.5 kmh S 3.4 mph5.5 kmh 30.09 in1019.0 mb 0.00 in0.0 mm 0.00 in0.0 mm 0.00 in0.0 mm
05:50 AM 48.6°F9.2°C 48.6°F9.2°C 100% 2.8 mph WSW4.5 kmh WSW 4.2 mph6.8 kmh 30.09 in1019.0 mb 0.00 in0.0 mm 0.00 in0.0 mm 0.00 in0.0 mm
06:00 AM 48.4°F9.1°C 48.4°F9.1°C 100% 3.0 mph SSW4.8 kmh SSW 4.2 mph6.8 kmh 30.09 in1019.0 mb 0.00 in0.0 mm 0.00 in0.0 mm 0.00 in0.0 mm
06:10 AM 48.4°F9.1°C 48.4°F9.1°C 100% 3.4 mph SSW5.5 kmh SSW 4.9 mph7.9 kmh 30.09 in1019.0 mb 0.00 in0.0 mm 0.00 in0.0 mm 0.00 in0.0 mm
06:20 AM 48.4°F9.1°C 48.4°F9.1°C 100% 5.2 mph S8.4 kmh S 5.9 mph9.5 kmh 30.09 in1019.0 mb 0.00 in0.0 mm 0.00 in0.0 mm 0.00 in0.0 mm
06:30 AM 48.6°F9.2°C 48.6°F9.2°C 100% 6.3 mph S10.1 kmh S 8.4 mph13.5 kmh 30.09 in1019.0 mb 0.00 in0.0 mm 0.00 in0.0 mm 0.00 in0.0 mm
06:40 AM 48.7°F9.3°C 48.7°F9.3°C 100% 6.1 mph S9.8 kmh S 7.6 mph12.2 kmh 30.09 in1019.0 mb 0.00 in0.0 mm 0.00 in0.0 mm 0.00 in0.0 mm
06:50 AM 48.9°F9.4°C 48.9°F9.4°C 100% 7.0 mph SW11.3 kmh SW 9.1 mph14.6 kmh 30.10 in1019.3 mb 0.00 in0.0 mm 0.00 in0.0 mm 0.00 in0.0 mm
07:00 AM 48.7°F9.3°C 48.7°F9.3°C 100% 6.2 mph SSW10.0 kmh SSW 6.6 mph10.6 kmh 30.09 in1019.0 mb 0.00 in0.0 mm 0.00 in0.0 mm 0.00 in0.0 mm
07:10 AM 48.7°F9.3°C 48.7°F9.3°C 100% 4.4 mph SE7.1 kmh SE 6.6 mph10.6 kmh 30.09 in1019.0 mb 0.00 in0.0 mm 0.00 in0.0 mm 0.00 in0.0 mm
07:20 AM 48.9°F9.4°C 48.9°F9.4°C 100% 4.3 mph SSE6.9 kmh SSE 4.9 mph7.9 kmh 30.10 in1019.3 mb 0.00 in0.0 mm 0.00 in0.0 mm 0.00 in0.0 mm
07:30 AM 48.9°F9.4°C 48.9°F9.4°C 100% 5.1 mph S8.2 kmh S 6.6 mph10.6 kmh 30.09 in1019.0 mb 0.00 in0.0 mm 0.00 in0.0 mm 0.00 in0.0 mm
07:40 AM 48.9°F9.4°C 48.9°F9.4°C 100% 5.7 mph S9.2 kmh S 9.1 mph14.6 kmh 30.09 in1019.0 mb 0.00 in0.0 mm 0.00 in0.0 mm 0.00 in0.0 mm
07:50 AM 49.1°F9.5°C 49.1°F9.5°C 100% 5.0 mph SSE8.0 kmh SSE 5.9 mph9.5 kmh 30.09 in1019.0 mb 0.00 in0.0 mm 0.00 in0.0 mm 0.00 in0.0 mm
08:00 AM 48.9°F9.4°C 48.9°F9.4°C 100% 3.7 mph S6.0 kmh S 4.9 mph7.9 kmh 30.10 in1019.3 mb 0.00 in0.0 mm 0.00 in0.0 mm 0.00 in0.0 mm
08:10 AM 48.9°F9.4°C 48.9°F9.4°C 100% 4.1 mph WSW6.6 kmh WSW 5.9 mph9.5 kmh 30.10 in1019.3 mb 0.00 in0.0 mm 0.00 in0.0 mm 0.00 in0.0 mm
08:20 AM 48.9°F9.4°C 48.9°F9.4°C 100% 4.6 mph SSW7.4 kmh SSW 6.6 mph10.6 kmh 30.10 in1019.3 mb 0.00 in0.0 mm 0.00 in0.0 mm 0.00 in0.0 mm
08:30 AM 48.9°F9.4°C 48.9°F9.4°C 100% 4.0 mph SW6.4 kmh SW 4.2 mph6.8 kmh 30.11 in1019.6 mb 0.00 in0.0 mm 0.00 in0.0 mm 0.00 in0.0 mm
08:40 AM 48.9°F9.4°C 48.9°F9.4°C 100% 5.3 mph SSW8.5 kmh SSW 4.9 mph7.9 kmh 30.10 in1019.3 mb 0.00 in0.0 mm 0.00 in0.0 mm 0.00 in0.0 mm
08:50 AM 49.3°F9.6°C 49.3°F9.6°C 100% 5.2 mph SSW8.4 kmh SSW 7.6 mph12.2 kmh 30.10 in1019.3 mb 0.00 in0.0 mm 0.00 in0.0 mm 0.00 in0.0 mm
09:00 AM 49.3°F9.6°C 49.3°F9.6°C 100% 6.5 mph SSW10.5 kmh SSW 7.6 mph12.2 kmh 30.10 in1019.3 mb 0.00 in0.0 mm 0.00 in0.0 mm 0.00 in0.0 mm
09:10 AM 49.6°F9.8°C 49.6°F9.8°C 100% 7.0 mph NW11.3 kmh NW 6.6 mph10.6 kmh 30.10 in1019.3 mb 0.00 in0.0 mm 0.00 in0.0 mm 0.00 in0.0 mm
09:20 AM 50.5°F10.3°C 50.5°F10.3°C 100% 6.2 mph S10.0 kmh S 10.1 mph16.3 kmh 30.10 in1019.3 mb 0.00 in0.0 mm 0.00 in0.0 mm 0.00 in0.0 mm
09:30 AM 51.1°F10.6°C 51.1°F10.6°C 100% 7.3 mph SSW11.7 kmh SSW 8.4 mph13.5 kmh 30.09 in1019.0 mb 0.00 in0.0 mm 0.00 in0.0 mm 0.00 in0.0 mm
09:40 AM 51.3°F10.7°C 51.3°F10.7°C 100% 7.0 mph S11.3 kmh S 8.4 mph13.5 kmh 30.09 in1019.0 mb 0.00 in0.0 mm 0.00 in0.0 mm 0.00 in0.0 mm
09:50 AM 51.3°F10.7°C 51.3°F10.7°C 100% 6.4 mph WSW10.3 kmh WSW 8.4 mph13.5 kmh 30.09 in1019.0 mb 0.00 in0.0 mm 0.00 in0.0 mm 0.00 in0.0 mm
10:00 AM 51.4°F10.8°C 51.2°F10.7°C 99% 6.3 mph SW10.1 kmh SW 8.4 mph13.5 kmh 30.09 in1019.0 mb 0.00 in0.0 mm 0.00 in0.0 mm 0.00 in0.0 mm
10:10 AM 51.8°F11.0°C 51.3°F10.7°C 98% 6.7 mph SSW10.8 kmh SSW 8.4 mph13.5 kmh 30.10 in1019.3 mb 0.00 in0.0 mm 0.00 in0.0 mm 0.00 in0.0 mm
10:20 AM 51.8°F11.0°C 50.7°F10.4°C 96% 7.3 mph S11.7 kmh S 10.8 mph17.4 kmh 30.09 in1019.0 mb 0.00 in0.0 mm 0.00 in0.0 mm 0.00 in0.0 mm
10:30 AM 52.0°F11.1°C 50.9°F10.5°C 96% 6.4 mph S10.3 kmh S 7.6 mph12.2 kmh 30.10 in1019.3 mb 0.00 in0.0 mm 0.00 in0.0 mm 0.00 in0.0 mm
10:40 AM 52.3°F11.3°C 51.2°F10.7°C 96% 5.3 mph SW8.5 kmh SW 7.6 mph12.2 kmh 30.10 in1019.3 mb 0.00 in0.0 mm 0.00 in0.0 mm 0.00 in0.0 mm
10:50 AM 52.9°F11.6°C 51.2°F10.7°C 94% 6.5 mph SSW10.5 kmh SSW 9.1 mph14.6 kmh 30.10 in1019.3 mb 0.00 in0.0 mm 0.00 in0.0 mm 0.00 in0.0 mm
11:00 AM 53.6°F12.0°C 51.3°F10.7°C 92% 7.8 mph SW12.6 kmh SW 9.1 mph14.6 kmh 30.10 in1019.3 mb 0.00 in0.0 mm 0.00 in0.0 mm 0.00 in0.0 mm
11:10 AM 54.5°F12.5°C 50.7°F10.4°C 87% 9.2 mph S14.8 kmh S 10.1 mph16.3 kmh 30.09 in1019.0 mb 0.00 in0.0 mm 0.00 in0.0 mm 0.00 in0.0 mm
11:20 AM 54.1°F12.3°C 51.3°F10.7°C 90% 7.1 mph S11.4 kmh S 9.1 mph14.6 kmh 30.09 in1019.0 mb 0.00 in0.0 mm 0.00 in0.0 mm 0.00 in0.0 mm
11:30 AM 54.3°F12.4°C 51.2°F10.7°C 89% 8.7 mph SE14.0 kmh SE 10.8 mph17.4 kmh 30.09 in1019.0 mb 0.00 in0.0 mm 0.00 in0.0 mm 0.00 in0.0 mm
11:40 AM 54.5°F12.5°C 50.4°F10.2°C 86% 8.1 mph S13.0 kmh S 10.8 mph17.4 kmh 30.09 in1019.0 mb 0.00 in0.0 mm 0.00 in0.0 mm 0.00 in0.0 mm
11:50 AM 55.2°F12.9°C 50.8°F10.4°C 85% 6.7 mph S10.8 kmh S 9.1 mph14.6 kmh 30.09 in1019.0 mb 0.00 in0.0 mm 0.00 in0.0 mm 0.00 in0.0 mm
12:00 PM 55.6°F13.1°C 50.8°F10.4°C 84% 7.3 mph SSW11.7 kmh SSW 8.4 mph13.5 kmh 30.09 in1019.0 mb 0.00 in0.0 mm 0.00 in0.0 mm 0.00 in0.0 mm
12:10 PM 55.4°F13.0°C 50.3°F10.2°C 83% 8.1 mph SW13.0 kmh SW 9.1 mph14.6 kmh 30.09 in1019.0 mb 0.00 in0.0 mm 0.00 in0.0 mm 0.00 in0.0 mm
12:20 PM 55.0°F12.8°C 50.0°F10.0°C 83% 7.6 mph SW12.2 kmh SW 9.1 mph14.6 kmh 30.10 in1019.3 mb 0.00 in0.0 mm 0.00 in0.0 mm 0.00 in0.0 mm
12:30 PM 54.9°F12.7°C 49.8°F9.9°C 83% 7.5 mph WSW12.1 kmh WSW 11.8 mph19.0 kmh 30.10 in1019.3 mb 0.00 in0.0 mm 0.00 in0.0 mm 0.00 in0.0 mm
12:40 PM 54.3°F12.4°C 50.5°F10.3°C 87% 7.7 mph SSW12.4 kmh SSW 10.8 mph17.4 kmh 30.10 in1019.3 mb 0.00 in0.0 mm 0.00 in0.0 mm 0.00 in0.0 mm
12:50 PM 53.6°F12.0°C 50.4°F10.2°C 89% 7.2 mph SSW11.6 kmh SSW 9.1 mph14.6 kmh 30.11 in1019.6 mb 0.00 in0.0 mm 0.00 in0.0 mm 0.00 in0.0 mm
01:00 PM 53.6°F12.0°C 51.0°F10.6°C 91% 5.0 mph SW8.0 kmh SW 7.6 mph12.2 kmh 30.11 in1019.6 mb 0.00 in0.0 mm 0.00 in0.0 mm 0.00 in0.0 mm
01:10 PM 53.8°F12.1°C 50.6°F10.3°C 89% 7.0 mph WNW11.3 kmh WNW 9.1 mph14.6 kmh 30.11 in1019.6 mb 0.00 in0.0 mm 0.00 in0.0 mm 0.00 in0.0 mm
01:20 PM 53.8°F12.1°C 50.3°F10.2°C 88% 6.0 mph S9.7 kmh S 9.1 mph14.6 kmh 30.11 in1019.6 mb 0.00 in0.0 mm 0.00 in0.0 mm 0.00 in0.0 mm
01:30 PM 53.1°F11.7°C 48.4°F9.1°C 84% 5.9 mph S9.5 kmh S 10.1 mph16.3 kmh 30.12 in1020.0 mb 0.00 in0.0 mm 0.00 in0.0 mm 0.00 in0.0 mm
01:40 PM 52.7°F11.5°C 48.3°F9.1°C 85% 4.9 mph SW7.9 kmh SW 5.9 mph9.5 kmh 30.13 in1020.3 mb 0.00 in0.0 mm 0.00 in0.0 mm 0.00 in0.0 mm
01:50 PM 52.2°F11.2°C 47.5°F8.6°C 84% 5.3 mph NNE8.5 kmh NNE 7.6 mph12.2 kmh 30.13 in1020.3 mb 0.00 in0.0 mm 0.00 in0.0 mm 0.00 in0.0 mm
02:00 PM 52.0°F11.1°C 47.3°F8.5°C 84% 4.4 mph NW7.1 kmh NW 7.6 mph12.2 kmh 30.14 in1020.7 mb 0.00 in0.0 mm 0.00 in0.0 mm 0.00 in0.0 mm
02:10 PM 51.8°F11.0°C 47.4°F8.6°C 85% 3.2 mph E5.1 kmh E 5.9 mph9.5 kmh 30.15 in1021.0 mb 0.00 in0.0 mm 0.00 in0.0 mm 0.00 in0.0 mm
02:20 PM 51.6°F10.9°C 47.3°F8.5°C 85% 3.2 mph N5.1 kmh N 6.6 mph10.6 kmh 30.15 in1021.0 mb 0.00 in0.0 mm 0.00 in0.0 mm 0.00 in0.0 mm
02:30 PM 51.4°F10.8°C 46.8°F8.2°C 84% 3.8 mph SE6.1 kmh SE 7.6 mph12.2 kmh 30.15 in1021.0 mb 0.00 in0.0 mm 0.00 in0.0 mm 0.00 in0.0 mm
02:40 PM 51.3°F10.7°C 46.3°F7.9°C 83% 3.3 mph ENE5.3 kmh ENE 4.9 mph7.9 kmh 30.15 in1021.0 mb 0.00 in0.0 mm 0.00 in0.0 mm 0.00 in0.0 mm
02:50 PM 51.1°F10.6°C 45.8°F7.7°C 82% 2.8 mph S4.5 kmh S 3.4 mph5.5 kmh 30.16 in1021.3 mb 0.00 in0.0 mm 0.00 in0.0 mm 0.00 in0.0 mm
03:00 PM 50.9°F10.5°C 45.6°F7.6°C 82% 2.2 mph SSE3.5 kmh SSE 3.4 mph5.5 kmh 30.17 in1021.7 mb 0.00 in0.0 mm 0.00 in0.0 mm 0.00 in0.0 mm
03:10 PM 50.7°F10.4°C 45.1°F7.3°C 81% 1.5 mph SE2.4 kmh SE 3.4 mph5.5 kmh 30.17 in1021.7 mb 0.00 in0.0 mm 0.00 in0.0 mm 0.00 in0.0 mm
03:20 PM 50.7°F10.4°C 44.1°F6.7°C 78% 2.9 mph NE4.7 kmh NE 4.2 mph6.8 kmh 30.18 in1022.0 mb 0.00 in0.0 mm 0.00 in0.0 mm 0.00 in0.0 mm
03:30 PM 50.4°F10.2°C 42.0°F5.6°C 73% 4.5 mph NE7.2 kmh NE 6.6 mph10.6 kmh 30.18 in1022.0 mb 0.00 in0.0 mm 0.00 in0.0 mm 0.00 in0.0 mm
03:40 PM 49.8°F9.9°C 41.5°F5.3°C 73% 3.0 mph SE4.8 kmh SE 5.9 mph9.5 kmh 30.19 in1022.4 mb 0.00 in0.0 mm 0.00 in0.0 mm 0.00 in0.0 mm
03:50 PM 49.3°F9.6°C 41.4°F5.2°C 74% 1.9 mph S3.1 kmh S 3.4 mph5.5 kmh 30.20 in1022.7 mb 0.00 in0.0 mm 0.00 in0.0 mm 0.00 in0.0 mm
04:00 PM 48.6°F9.2°C 41.0°F5.0°C 75% 1.1 mph NE1.8 kmh NE 3.4 mph5.5 kmh 30.20 in1022.7 mb 0.00 in0.0 mm 0.00 in0.0 mm 0.00 in0.0 mm
04:10 PM 47.8°F8.8°C 41.0°F5.0°C 77% 1.5 mph SSE2.4 kmh SSE 4.2 mph6.8 kmh 30.20 in1022.7 mb 0.00 in0.0 mm 0.00 in0.0 mm 0.00 in0.0 mm
04:20 PM 47.3°F8.5°C 40.8°F4.9°C 78% 0.6 mph W1.0 kmh W 1.7 mph2.7 kmh 30.20 in1022.7 mb 0.00 in0.0 mm 0.00 in0.0 mm 0.00 in0.0 mm
04:30 PM 46.6°F8.1°C 40.4°F4.7°C 79% 0.8 mph SW1.3 kmh SW 4.9 mph7.9 kmh 30.21 in1023.0 mb 0.00 in0.0 mm 0.00 in0.0 mm 0.00 in0.0 mm
04:40 PM 46.4°F8.0°C 39.3°F4.1°C 76% 2.5 mph W4.0 kmh W 4.9 mph7.9 kmh 30.22 in1023.4 mb 0.00 in0.0 mm 0.00 in0.0 mm 0.00 in0.0 mm
04:50 PM 45.9°F7.7°C 38.7°F3.7°C 76% 1.1 mph NE1.8 kmh NE 2.5 mph4.0 kmh 30.23 in1023.7 mb 0.00 in0.0 mm 0.00 in0.0 mm 0.00 in0.0 mm
05:00 PM 45.5°F7.5°C 38.4°F3.6°C 76% 1.5 mph SSW2.4 kmh SSW 2.5 mph4.0 kmh 30.23 in1023.7 mb 0.00 in0.0 mm 0.00 in0.0 mm 0.00 in0.0 mm
05:10 PM 44.8°F7.1°C 39.6°F4.2°C 82% 1.1 mph SW1.8 kmh SW 1.7 mph2.7 kmh 30.23 in1023.7 mb 0.00 in0.0 mm 0.00 in0.0 mm 0.00 in0.0 mm
05:20 PM 44.2°F6.8°C 39.1°F3.9°C 82% 0.4 mph NNE0.6 kmh NNE 1.7 mph2.7 kmh 30.23 in1023.7 mb 0.00 in0.0 mm 0.00 in0.0 mm 0.00 in0.0 mm
05:30 PM 43.9°F6.6°C 38.7°F3.7°C 82% 0.8 mph SW1.3 kmh SW 1.7 mph2.7 kmh 30.24 in1024.0 mb 0.00 in0.0 mm 0.00 in0.0 mm 0.00 in0.0 mm
05:40 PM 43.7°F6.5°C 38.6°F3.7°C 82% 1.2 mph WSW1.9 kmh WSW 2.5 mph4.0 kmh 30.24 in1024.0 mb 0.00 in0.0 mm 0.00 in0.0 mm 0.00 in0.0 mm
05:50 PM 43.3°F6.3°C 38.2°F3.4°C 82% 1.1 mph W1.8 kmh W 2.5 mph4.0 kmh 30.25 in1024.4 mb 0.00 in0.0 mm 0.00 in0.0 mm 0.00 in0.0 mm
06:00 PM 43.3°F6.3°C 38.2°F3.4°C 82% 2.6 mph SW4.2 kmh SW 3.4 mph5.5 kmh 30.25 in1024.4 mb 0.00 in0.0 mm 0.00 in0.0 mm 0.00 in0.0 mm
06:10 PM 43.5°F6.4°C 37.4°F3.0°C 79% 2.4 mph W3.9 kmh W 4.9 mph7.9 kmh 30.25 in1024.4 mb 0.00 in0.0 mm 0.00 in0.0 mm 0.00 in0.0 mm
06:20 PM 43.2°F6.2°C 37.1°F2.8°C 79% 1.6 mph NE2.6 kmh NE 3.4 mph5.5 kmh 30.26 in1024.7 mb 0.00 in0.0 mm 0.00 in0.0 mm 0.00 in0.0 mm
06:30 PM 42.8°F6.0°C 36.7°F2.6°C 79% 1.7 mph N2.7 kmh N 4.2 mph6.8 kmh 30.26 in1024.7 mb 0.00 in0.0 mm 0.00 in0.0 mm 0.00 in0.0 mm
06:40 PM 42.8°F6.0°C 36.7°F2.6°C 79% 1.6 mph WSW2.6 kmh WSW 3.4 mph5.5 kmh 30.26 in1024.7 mb 0.00 in0.0 mm 0.00 in0.0 mm 0.00 in0.0 mm
06:50 PM 42.8°F6.0°C 36.4°F2.4°C 78% 1.9 mph SSE3.1 kmh SSE 3.4 mph5.5 kmh 30.27 in1025.1 mb 0.00 in0.0 mm 0.00 in0.0 mm 0.00 in0.0 mm
07:00 PM 42.6°F5.9°C 36.3°F2.4°C 78% 1.9 mph ESE3.1 kmh ESE 3.4 mph5.5 kmh 30.27 in1025.1 mb 0.00 in0.0 mm 0.00 in0.0 mm 0.00 in0.0 mm
07:10 PM 42.3°F5.7°C 35.9°F2.2°C 78% 2.1 mph SSW3.4 kmh SSW 4.2 mph6.8 kmh 30.27 in1025.1 mb 0.00 in0.0 mm 0.00 in0.0 mm 0.00 in0.0 mm
07:20 PM 42.1°F5.6°C 35.7°F2.1°C 78% 1.9 mph SW3.1 kmh SW 3.4 mph5.5 kmh 30.27 in1025.1 mb 0.00 in0.0 mm 0.00 in0.0 mm 0.00 in0.0 mm
07:30 PM 41.9°F5.5°C 35.6°F2.0°C 78% 1.9 mph SSE3.1 kmh SSE 2.5 mph4.0 kmh 30.28 in1025.4 mb 0.00 in0.0 mm 0.00 in0.0 mm 0.00 in0.0 mm
07:40 PM 41.5°F5.3°C 35.5°F1.9°C 79% 0.8 mph WSW1.3 kmh WSW 2.5 mph4.0 kmh 30.29 in1025.7 mb 0.00 in0.0 mm 0.00 in0.0 mm 0.00 in0.0 mm
07:50 PM 41.2°F5.1°C 35.2°F1.8°C 79% 0.8 mph WNW1.3 kmh WNW 2.5 mph4.0 kmh 30.28 in1025.4 mb 0.00 in0.0 mm 0.00 in0.0 mm 0.00 in0.0 mm
08:00 PM 40.8°F4.9°C 35.1°F1.7°C 80% 1.6 mph SW2.6 kmh SW 3.4 mph5.5 kmh 30.29 in1025.7 mb 0.00 in0.0 mm 0.00 in0.0 mm 0.00 in0.0 mm
08:10 PM 40.3°F4.6°C 34.6°F1.4°C 80% 0.7 mph SSW1.1 kmh SSW 1.7 mph2.7 kmh 30.29 in1025.7 mb 0.00 in0.0 mm 0.00 in0.0 mm 0.00 in0.0 mm
08:20 PM 39.7°F4.3°C 34.4°F1.3°C 81% 0.5 mph SW0.8 kmh SW 1.7 mph2.7 kmh 30.29 in1025.7 mb 0.00 in0.0 mm 0.00 in0.0 mm 0.00 in0.0 mm
08:30 PM 39.4°F4.1°C 34.4°F1.3°C 82% 1.1 mph SW1.8 kmh SW 2.5 mph4.0 kmh 30.30 in1026.1 mb 0.00 in0.0 mm 0.00 in0.0 mm 0.00 in0.0 mm
08:40 PM 38.8°F3.8°C 33.8°F1.0°C 82% 0.8 mph SW1.3 kmh SW 1.7 mph2.7 kmh 30.30 in1026.1 mb 0.00 in0.0 mm 0.00 in0.0 mm 0.00 in0.0 mm
08:50 PM 38.7°F3.7°C 34.0°F1.1°C 83% 1.3 mph WSW2.1 kmh WSW 2.5 mph4.0 kmh 30.30 in1026.1 mb 0.00 in0.0 mm 0.00 in0.0 mm 0.00 in0.0 mm
09:00 PM 38.3°F3.5°C 33.6°F0.9°C 83% 1.1 mph WSW1.8 kmh WSW 1.7 mph2.7 kmh 30.30 in1026.1 mb 0.00 in0.0 mm 0.00 in0.0 mm 0.00 in0.0 mm
09:10 PM 37.6°F3.1°C 33.2°F0.7°C 84% 0.8 mph SE1.3 kmh SE 1.7 mph2.7 kmh 30.30 in1026.1 mb 0.00 in0.0 mm 0.00 in0.0 mm 0.00 in0.0 mm
09:20 PM 37.0°F2.8°C 33.0°F0.6°C 85% 0.6 mph WSW1.0 kmh WSW 1.7 mph2.7 kmh 30.31 in1026.4 mb 0.00 in0.0 mm 0.00 in0.0 mm 0.00 in0.0 mm
09:30 PM 36.7°F2.6°C 32.9°F0.5°C 86% 0.8 mph SW1.3 kmh SW 1.7 mph2.7 kmh 30.31 in1026.4 mb 0.00 in0.0 mm 0.00 in0.0 mm 0.00 in0.0 mm
09:40 PM 36.7°F2.6°C 33.5°F0.8°C 88% 0.9 mph SW1.4 kmh SW 1.7 mph2.7 kmh 30.31 in1026.4 mb 0.00 in0.0 mm 0.00 in0.0 mm 0.00 in0.0 mm
09:50 PM 36.5°F2.5°C 33.6°F0.9°C 89% 0.9 mph SW1.4 kmh SW 1.7 mph2.7 kmh 30.31 in1026.4 mb 0.00 in0.0 mm 0.00 in0.0 mm 0.00 in0.0 mm
10:00 PM 36.3°F2.4°C 33.7°F0.9°C 90% 0.4 mph SSW0.6 kmh SSW 2.5 mph4.0 kmh 30.31 in1026.4 mb 0.00 in0.0 mm 0.00 in0.0 mm 0.00 in0.0 mm
10:10 PM 36.3°F2.4°C 34.0°F1.1°C 91% 1.6 mph S2.6 kmh S 2.5 mph4.0 kmh 30.32 in1026.8 mb 0.00 in0.0 mm 0.00 in0.0 mm 0.00 in0.0 mm
10:20 PM 36.0°F2.2°C 33.9°F1.1°C 92% 1.2 mph WSW1.9 kmh WSW 2.5 mph4.0 kmh 30.32 in1026.8 mb 0.00 in0.0 mm 0.00 in0.0 mm 0.00 in0.0 mm
10:30 PM 35.8°F2.1°C 33.7°F0.9°C 92% 1.7 mph WSW2.7 kmh WSW 2.5 mph4.0 kmh 30.32 in1026.8 mb 0.00 in0.0 mm 0.00 in0.0 mm 0.00 in0.0 mm
10:40 PM 36.1°F2.3°C 34.0°F1.1°C 92% 1.6 mph WSW2.6 kmh WSW 3.4 mph5.5 kmh 30.32 in1026.8 mb 0.00 in0.0 mm 0.00 in0.0 mm 0.00 in0.0 mm
10:50 PM 36.1°F2.3°C 34.3°F1.3°C 93% 2.5 mph WSW4.0 kmh WSW 3.4 mph5.5 kmh 30.32 in1026.8 mb 0.00 in0.0 mm 0.00 in0.0 mm 0.00 in0.0 mm
11:00 PM 36.3°F2.4°C 34.5°F1.4°C 93% 3.0 mph SW4.8 kmh SW 4.2 mph6.8 kmh 30.33 in1027.1 mb 0.00 in0.0 mm 0.00 in0.0 mm 0.00 in0.0 mm
11:10 PM 36.1°F2.3°C 34.3°F1.3°C 93% 2.1 mph WSW3.4 kmh WSW 3.4 mph5.5 kmh 30.33 in1027.1 mb 0.00 in0.0 mm 0.00 in0.0 mm 0.00 in0.0 mm
11:20 PM 36.0°F2.2°C 34.1°F1.2°C 93% 2.0 mph WSW3.2 kmh WSW 3.4 mph5.5 kmh 30.33 in1027.1 mb 0.00 in0.0 mm 0.00 in0.0 mm 0.00 in0.0 mm
11:30 PM 35.8°F2.1°C 34.0°F1.1°C 93% 2.5 mph SW4.0 kmh SW 3.4 mph5.5 kmh 30.34 in1027.4 mb 0.00 in0.0 mm 0.00 in0.0 mm 0.00 in0.0 mm
11:40 PM 35.6°F2.0°C 33.8°F1.0°C 93% 2.1 mph WSW3.4 kmh WSW 3.4 mph5.5 kmh 30.34 in1027.4 mb 0.00 in0.0 mm 0.00 in0.0 mm 0.00 in0.0 mm
11:50 PM 35.4°F1.9°C 33.6°F0.9°C 93% 1.4 mph SW2.3 kmh SW 2.5 mph4.0 kmh 30.34 in1027.4 mb 0.00 in0.0 mm 0.00 in0.0 mm 0.00 in0.0 mm